sensor_id;sensor_type;location;lat;lon;timestamp;P1;durP1;ratioP1;P2;durP2;ratioP2
15398;SDS011;7797;51.428;6.756;2024-01-11T00:01:08;30.73;;;15.40;;
15398;SDS011;7797;51.428;6.756;2024-01-11T00:03:35;26.67;;;14.97;;
15398;SDS011;7797;51.428;6.756;2024-01-11T00:06:02;29.57;;;15.73;;
15398;SDS011;7797;51.428;6.756;2024-01-11T00:08:30;26.57;;;15.57;;
15398;SDS011;7797;51.428;6.756;2024-01-11T00:10:57;28.17;;;14.83;;
15398;SDS011;7797;51.428;6.756;2024-01-11T00:13:24;26.27;;;15.47;;
15398;SDS011;7797;51.428;6.756;2024-01-11T00:15:51;27.87;;;15.67;;
15398;SDS011;7797;51.428;6.756;2024-01-11T00:18:18;29.73;;;16.03;;
15398;SDS011;7797;51.428;6.756;2024-01-11T00:20:45;25.77;;;15.40;;
15398;SDS011;7797;51.428;6.756;2024-01-11T00:23:12;30.40;;;15.67;;
15398;SDS011;7797;51.428;6.756;2024-01-11T00:25:39;30.50;;;15.80;;
15398;SDS011;7797;51.428;6.756;2024-01-11T00:28:06;27.33;;;16.20;;
15398;SDS011;7797;51.428;6.756;2024-01-11T00:30:32;29.30;;;15.80;;
15398;SDS011;7797;51.428;6.756;2024-01-11T00:32:59;31.43;;;16.50;;
15398;SDS011;7797;51.428;6.756;2024-01-11T00:35:26;25.90;;;15.87;;
15398;SDS011;7797;51.428;6.756;2024-01-11T00:37:53;28.60;;;15.07;;
15398;SDS011;7797;51.428;6.756;2024-01-11T00:40:20;28.10;;;15.33;;
15398;SDS011;7797;51.428;6.756;2024-01-11T00:42:47;31.43;;;16.00;;
15398;SDS011;7797;51.428;6.756;2024-01-11T00:45:14;24.90;;;15.23;;
15398;SDS011;7797;51.428;6.756;2024-01-11T00:47:41;26.03;;;15.93;;
15398;SDS011;7797;51.428;6.756;2024-01-11T00:50:08;27.90;;;15.77;;
15398;SDS011;7797;51.428;6.756;2024-01-11T00:52:36;24.50;;;14.90;;
15398;SDS011;7797;51.428;6.756;2024-01-11T00:55:03;28.27;;;15.77;;
15398;SDS011;7797;51.428;6.756;2024-01-11T00:57:30;25.73;;;15.43;;
15398;SDS011;7797;51.428;6.756;2024-01-11T00:59:57;27.97;;;16.37;;
15398;SDS011;7797;51.428;6.756;2024-01-11T01:02:24;26.77;;;15.10;;
15398;SDS011;7797;51.428;6.756;2024-01-11T01:04:50;26.27;;;15.30;;
15398;SDS011;7797;51.428;6.756;2024-01-11T01:07:17;29.87;;;16.63;;
15398;SDS011;7797;51.428;6.756;2024-01-11T01:09:44;28.33;;;16.20;;
15398;SDS011;7797;51.428;6.756;2024-01-11T01:12:11;29.87;;;15.77;;
15398;SDS011;7797;51.428;6.756;2024-01-11T01:14:38;30.77;;;16.33;;
15398;SDS011;7797;51.428;6.756;2024-01-11T01:17:05;30.47;;;15.87;;
15398;SDS011;7797;51.428;6.756;2024-01-11T01:19:32;28.07;;;16.00;;
15398;SDS011;7797;51.428;6.756;2024-01-11T01:21:59;30.70;;;16.43;;
15398;SDS011;7797;51.428;6.756;2024-01-11T01:24:26;29.47;;;15.80;;
15398;SDS011;7797;51.428;6.756;2024-01-11T01:26:53;30.27;;;15.90;;
15398;SDS011;7797;51.428;6.756;2024-01-11T01:29:20;29.67;;;16.83;;
15398;SDS011;7797;51.428;6.756;2024-01-11T01:31:46;30.87;;;16.10;;
15398;SDS011;7797;51.428;6.756;2024-01-11T01:34:20;30.63;;;15.97;;
15398;SDS011;7797;51.428;6.756;2024-01-11T01:36:47;27.03;;;15.60;;
15398;SDS011;7797;51.428;6.756;2024-01-11T01:39:14;26.67;;;15.70;;
15398;SDS011;7797;51.428;6.756;2024-01-11T01:41:40;27.57;;;15.70;;
15398;SDS011;7797;51.428;6.756;2024-01-11T01:44:07;31.63;;;16.67;;
15398;SDS011;7797;51.428;6.756;2024-01-11T01:46:34;33.63;;;17.70;;
15398;SDS011;7797;51.428;6.756;2024-01-11T01:49:01;30.27;;;16.03;;
15398;SDS011;7797;51.428;6.756;2024-01-11T01:51:29;28.30;;;16.30;;
15398;SDS011;7797;51.428;6.756;2024-01-11T01:53:59;27.93;;;16.00;;
15398;SDS011;7797;51.428;6.756;2024-01-11T01:56:26;32.80;;;17.77;;
15398;SDS011;7797;51.428;6.756;2024-01-11T01:58:53;30.23;;;16.03;;
15398;SDS011;7797;51.428;6.756;2024-01-11T02:01:21;29.70;;;17.13;;
15398;SDS011;7797;51.428;6.756;2024-01-11T02:03:50;32.27;;;16.73;;
15398;SDS011;7797;51.428;6.756;2024-01-11T02:06:18;33.07;;;16.13;;
15398;SDS011;7797;51.428;6.756;2024-01-11T02:08:45;35.23;;;17.90;;
15398;SDS011;7797;51.428;6.756;2024-01-11T02:11:12;29.10;;;16.63;;
15398;SDS011;7797;51.428;6.756;2024-01-11T02:13:39;36.07;;;17.77;;
15398;SDS011;7797;51.428;6.756;2024-01-11T02:16:06;31.23;;;16.70;;
15398;SDS011;7797;51.428;6.756;2024-01-11T02:18:33;31.20;;;17.77;;
15398;SDS011;7797;51.428;6.756;2024-01-11T02:21:00;32.47;;;17.60;;
15398;SDS011;7797;51.428;6.756;2024-01-11T02:23:28;31.00;;;17.80;;
15398;SDS011;7797;51.428;6.756;2024-01-11T02:25:56;31.13;;;17.30;;
15398;SDS011;7797;51.428;6.756;2024-01-11T02:28:23;34.47;;;17.67;;
15398;SDS011;7797;51.428;6.756;2024-01-11T02:30:49;31.17;;;16.83;;
15398;SDS011;7797;51.428;6.756;2024-01-11T02:33:16;30.13;;;17.07;;
15398;SDS011;7797;51.428;6.756;2024-01-11T02:35:45;32.53;;;16.40;;
15398;SDS011;7797;51.428;6.756;2024-01-11T02:38:13;34.67;;;18.37;;
15398;SDS011;7797;51.428;6.756;2024-01-11T02:40:40;34.50;;;17.50;;
15398;SDS011;7797;51.428;6.756;2024-01-11T02:43:08;32.80;;;17.07;;
15398;SDS011;7797;51.428;6.756;2024-01-11T02:45:37;35.43;;;17.90;;
15398;SDS011;7797;51.428;6.756;2024-01-11T02:48:04;32.00;;;16.63;;
15398;SDS011;7797;51.428;6.756;2024-01-11T02:50:31;28.70;;;17.23;;
15398;SDS011;7797;51.428;6.756;2024-01-11T02:52:58;32.00;;;16.43;;
15398;SDS011;7797;51.428;6.756;2024-01-11T02:55:25;34.37;;;17.60;;
15398;SDS011;7797;51.428;6.756;2024-01-11T02:57:52;31.37;;;17.23;;
15398;SDS011;7797;51.428;6.756;2024-01-11T03:00:19;33.53;;;17.00;;
15398;SDS011;7797;51.428;6.756;2024-01-11T03:02:46;34.10;;;16.83;;
15398;SDS011;7797;51.428;6.756;2024-01-11T03:05:13;28.27;;;16.37;;
15398;SDS011;7797;51.428;6.756;2024-01-11T03:07:39;32.57;;;17.07;;
15398;SDS011;7797;51.428;6.756;2024-01-11T03:10:06;30.87;;;18.17;;
15398;SDS011;7797;51.428;6.756;2024-01-11T03:12:33;33.23;;;16.87;;
15398;SDS011;7797;51.428;6.756;2024-01-11T03:15:00;31.40;;;16.40;;
15398;SDS011;7797;51.428;6.756;2024-01-11T03:17:27;32.53;;;17.17;;
15398;SDS011;7797;51.428;6.756;2024-01-11T03:19:54;28.70;;;16.53;;
15398;SDS011;7797;51.428;6.756;2024-01-11T03:22:21;27.77;;;16.20;;
15398;SDS011;7797;51.428;6.756;2024-01-11T03:24:47;32.17;;;17.43;;
15398;SDS011;7797;51.428;6.756;2024-01-11T03:27:14;28.63;;;16.50;;
15398;SDS011;7797;51.428;6.756;2024-01-11T03:29:41;34.43;;;16.93;;
15398;SDS011;7797;51.428;6.756;2024-01-11T03:32:08;32.93;;;16.93;;
15398;SDS011;7797;51.428;6.756;2024-01-11T03:34:35;29.80;;;17.03;;
15398;SDS011;7797;51.428;6.756;2024-01-11T03:37:02;31.07;;;17.43;;
15398;SDS011;7797;51.428;6.756;2024-01-11T03:39:28;31.30;;;16.50;;
15398;SDS011;7797;51.428;6.756;2024-01-11T03:41:55;29.37;;;16.40;;
15398;SDS011;7797;51.428;6.756;2024-01-11T03:44:22;30.03;;;16.03;;
15398;SDS011;7797;51.428;6.756;2024-01-11T03:46:49;29.93;;;16.37;;
15398;SDS011;7797;51.428;6.756;2024-01-11T03:49:16;31.13;;;16.40;;
15398;SDS011;7797;51.428;6.756;2024-01-11T03:51:43;31.47;;;16.60;;
15398;SDS011;7797;51.428;6.756;2024-01-11T03:54:10;35.30;;;16.83;;
15398;SDS011;7797;51.428;6.756;2024-01-11T03:56:38;32.93;;;17.50;;
15398;SDS011;7797;51.428;6.756;2024-01-11T03:59:06;30.30;;;16.60;;
15398;SDS011;7797;51.428;6.756;2024-01-11T04:01:33;25.83;;;15.53;;
15398;SDS011;7797;51.428;6.756;2024-01-11T04:03:59;31.83;;;16.97;;
15398;SDS011;7797;51.428;6.756;2024-01-11T04:06:26;30.47;;;16.20;;
15398;SDS011;7797;51.428;6.756;2024-01-11T04:08:53;31.77;;;16.83;;
15398;SDS011;7797;51.428;6.756;2024-01-11T04:11:21;29.50;;;16.70;;
15398;SDS011;7797;51.428;6.756;2024-01-11T04:13:48;31.20;;;17.17;;
15398;SDS011;7797;51.428;6.756;2024-01-11T04:16:15;31.27;;;16.50;;
15398;SDS011;7797;51.428;6.756;2024-01-11T04:18:42;34.27;;;17.37;;
15398;SDS011;7797;51.428;6.756;2024-01-11T04:21:19;30.07;;;16.80;;
15398;SDS011;7797;51.428;6.756;2024-01-11T04:23:50;35.83;;;17.23;;
15398;SDS011;7797;51.428;6.756;2024-01-11T04:26:17;33.10;;;17.87;;
15398;SDS011;7797;51.428;6.756;2024-01-11T04:28:44;30.23;;;16.67;;
15398;SDS011;7797;51.428;6.756;2024-01-11T04:31:15;34.37;;;17.37;;
15398;SDS011;7797;51.428;6.756;2024-01-11T04:33:45;34.00;;;17.33;;
15398;SDS011;7797;51.428;6.756;2024-01-11T04:36:12;32.63;;;17.27;;
15398;SDS011;7797;51.428;6.756;2024-01-11T04:38:39;26.97;;;15.87;;
15398;SDS011;7797;51.428;6.756;2024-01-11T04:41:09;28.93;;;16.00;;
15398;SDS011;7797;51.428;6.756;2024-01-11T04:43:44;32.50;;;16.87;;
15398;SDS011;7797;51.428;6.756;2024-01-11T04:48:48;32.30;;;16.33;;
15398;SDS011;7797;51.428;6.756;2024-01-11T04:51:16;32.33;;;16.07;;
15398;SDS011;7797;51.428;6.756;2024-01-11T04:53:44;29.97;;;16.97;;
15398;SDS011;7797;51.428;6.756;2024-01-11T04:56:13;31.37;;;16.37;;
15398;SDS011;7797;51.428;6.756;2024-01-11T04:58:41;29.57;;;16.07;;
15398;SDS011;7797;51.428;6.756;2024-01-11T05:01:16;33.80;;;16.77;;
15398;SDS011;7797;51.428;6.756;2024-01-11T05:03:44;30.57;;;16.90;;
15398;SDS011;7797;51.428;6.756;2024-01-11T05:06:18;31.87;;;16.13;;
15398;SDS011;7797;51.428;6.756;2024-01-11T05:08:46;30.30;;;17.40;;
15398;SDS011;7797;51.428;6.756;2024-01-11T05:11:17;25.77;;;15.37;;
15398;SDS011;7797;51.428;6.756;2024-01-11T05:13:45;31.53;;;17.17;;
15398;SDS011;7797;51.428;6.756;2024-01-11T05:16:24;30.50;;;16.60;;
15398;SDS011;7797;51.428;6.756;2024-01-11T05:18:54;35.93;;;17.57;;
15398;SDS011;7797;51.428;6.756;2024-01-11T05:21:22;29.53;;;16.30;;
15398;SDS011;7797;51.428;6.756;2024-01-11T05:23:49;31.83;;;16.67;;
15398;SDS011;7797;51.428;6.756;2024-01-11T05:26:16;33.47;;;17.70;;
15398;SDS011;7797;51.428;6.756;2024-01-11T05:28:43;31.27;;;17.00;;
15398;SDS011;7797;51.428;6.756;2024-01-11T05:31:11;31.63;;;17.83;;
15398;SDS011;7797;51.428;6.756;2024-01-11T05:33:39;30.13;;;16.10;;
15398;SDS011;7797;51.428;6.756;2024-01-11T05:36:06;29.17;;;16.87;;
15398;SDS011;7797;51.428;6.756;2024-01-11T05:38:33;35.10;;;16.77;;
15398;SDS011;7797;51.428;6.756;2024-01-11T05:41:01;34.80;;;17.33;;
15398;SDS011;7797;51.428;6.756;2024-01-11T05:43:28;36.43;;;17.47;;
15398;SDS011;7797;51.428;6.756;2024-01-11T05:45:55;31.60;;;15.87;;
15398;SDS011;7797;51.428;6.756;2024-01-11T05:48:22;34.37;;;17.93;;
15398;SDS011;7797;51.428;6.756;2024-01-11T05:50:49;31.57;;;16.57;;
15398;SDS011;7797;51.428;6.756;2024-01-11T05:53:16;30.67;;;16.70;;
15398;SDS011;7797;51.428;6.756;2024-01-11T05:55:47;32.00;;;16.47;;
15398;SDS011;7797;51.428;6.756;2024-01-11T05:58:17;31.67;;;16.30;;
15398;SDS011;7797;51.428;6.756;2024-01-11T06:00:44;31.47;;;16.80;;
15398;SDS011;7797;51.428;6.756;2024-01-11T06:03:11;32.13;;;16.77;;
15398;SDS011;7797;51.428;6.756;2024-01-11T06:05:39;31.03;;;16.97;;
15398;SDS011;7797;51.428;6.756;2024-01-11T06:08:06;28.33;;;16.47;;
15398;SDS011;7797;51.428;6.756;2024-01-11T06:10:33;30.60;;;16.70;;
15398;SDS011;7797;51.428;6.756;2024-01-11T06:13:00;29.37;;;16.33;;
15398;SDS011;7797;51.428;6.756;2024-01-11T06:15:27;30.27;;;16.67;;
15398;SDS011;7797;51.428;6.756;2024-01-11T06:17:54;30.77;;;16.80;;
15398;SDS011;7797;51.428;6.756;2024-01-11T06:20:21;31.17;;;16.50;;
15398;SDS011;7797;51.428;6.756;2024-01-11T06:22:48;29.20;;;15.43;;
15398;SDS011;7797;51.428;6.756;2024-01-11T06:25:15;33.07;;;17.27;;
15398;SDS011;7797;51.428;6.756;2024-01-11T06:27:42;31.80;;;17.00;;
15398;SDS011;7797;51.428;6.756;2024-01-11T06:30:10;32.93;;;17.90;;
15398;SDS011;7797;51.428;6.756;2024-01-11T06:32:37;30.47;;;17.27;;
15398;SDS011;7797;51.428;6.756;2024-01-11T06:35:05;28.33;;;16.10;;
15398;SDS011;7797;51.428;6.756;2024-01-11T06:37:35;31.67;;;17.50;;
15398;SDS011;7797;51.428;6.756;2024-01-11T06:40:01;30.17;;;16.83;;
15398;SDS011;7797;51.428;6.756;2024-01-11T06:42:30;32.87;;;17.30;;
15398;SDS011;7797;51.428;6.756;2024-01-11T06:44:57;30.97;;;17.30;;
15398;SDS011;7797;51.428;6.756;2024-01-11T06:47:24;32.40;;;17.50;;
15398;SDS011;7797;51.428;6.756;2024-01-11T06:49:51;36.97;;;17.83;;
15398;SDS011;7797;51.428;6.756;2024-01-11T06:52:18;34.30;;;17.87;;
15398;SDS011;7797;51.428;6.756;2024-01-11T06:54:46;32.90;;;18.10;;
15398;SDS011;7797;51.428;6.756;2024-01-11T06:57:13;34.80;;;18.27;;
15398;SDS011;7797;51.428;6.756;2024-01-11T06:59:42;36.00;;;19.67;;
15398;SDS011;7797;51.428;6.756;2024-01-11T07:02:10;30.93;;;17.27;;
15398;SDS011;7797;51.428;6.756;2024-01-11T07:04:37;33.40;;;17.73;;
15398;SDS011;7797;51.428;6.756;2024-01-11T07:07:04;45.03;;;24.80;;
15398;SDS011;7797;51.428;6.756;2024-01-11T07:09:31;37.37;;;18.53;;
15398;SDS011;7797;51.428;6.756;2024-01-11T07:11:58;33.20;;;17.57;;
15398;SDS011;7797;51.428;6.756;2024-01-11T07:14:24;33.87;;;17.30;;
15398;SDS011;7797;51.428;6.756;2024-01-11T07:16:51;39.73;;;18.53;;
15398;SDS011;7797;51.428;6.756;2024-01-11T07:19:18;35.10;;;18.93;;
15398;SDS011;7797;51.428;6.756;2024-01-11T07:21:45;31.97;;;17.20;;
15398;SDS011;7797;51.428;6.756;2024-01-11T07:24:12;44.83;;;23.50;;
15398;SDS011;7797;51.428;6.756;2024-01-11T07:26:39;35.17;;;18.93;;
15398;SDS011;7797;51.428;6.756;2024-01-11T07:29:06;35.07;;;17.37;;
15398;SDS011;7797;51.428;6.756;2024-01-11T07:31:33;31.27;;;17.87;;
15398;SDS011;7797;51.428;6.756;2024-01-11T07:34:00;33.67;;;17.17;;
15398;SDS011;7797;51.428;6.756;2024-01-11T07:36:27;33.97;;;19.13;;
15398;SDS011;7797;51.428;6.756;2024-01-11T07:38:54;36.40;;;18.60;;
15398;SDS011;7797;51.428;6.756;2024-01-11T07:41:21;41.70;;;21.57;;
15398;SDS011;7797;51.428;6.756;2024-01-11T07:43:49;39.83;;;20.47;;
15398;SDS011;7797;51.428;6.756;2024-01-11T07:46:20;34.03;;;17.77;;
15398;SDS011;7797;51.428;6.756;2024-01-11T07:49:02;33.70;;;18.10;;
15398;SDS011;7797;51.428;6.756;2024-01-11T07:51:29;33.93;;;19.03;;
15398;SDS011;7797;51.428;6.756;2024-01-11T07:53:56;35.47;;;18.70;;
15398;SDS011;7797;51.428;6.756;2024-01-11T07:56:28;41.73;;;21.87;;
15398;SDS011;7797;51.428;6.756;2024-01-11T07:58:55;38.87;;;20.57;;
15398;SDS011;7797;51.428;6.756;2024-01-11T08:01:22;45.40;;;21.57;;
15398;SDS011;7797;51.428;6.756;2024-01-11T08:03:49;38.97;;;20.73;;
15398;SDS011;7797;51.428;6.756;2024-01-11T08:06:19;37.13;;;18.80;;
15398;SDS011;7797;51.428;6.756;2024-01-11T08:08:46;39.43;;;19.30;;
15398;SDS011;7797;51.428;6.756;2024-01-11T08:11:19;37.40;;;19.50;;
15398;SDS011;7797;51.428;6.756;2024-01-11T08:13:46;39.50;;;18.60;;
15398;SDS011;7797;51.428;6.756;2024-01-11T08:16:16;39.87;;;19.47;;
15398;SDS011;7797;51.428;6.756;2024-01-11T08:18:44;54.03;;;23.43;;
15398;SDS011;7797;51.428;6.756;2024-01-11T08:21:12;39.00;;;21.20;;
15398;SDS011;7797;51.428;6.756;2024-01-11T08:23:40;33.80;;;19.30;;
15398;SDS011;7797;51.428;6.756;2024-01-11T08:26:12;36.70;;;18.20;;
15398;SDS011;7797;51.428;6.756;2024-01-11T08:28:41;35.80;;;17.83;;
15398;SDS011;7797;51.428;6.756;2024-01-11T08:31:08;29.97;;;16.87;;
15398;SDS011;7797;51.428;6.756;2024-01-11T08:33:35;35.63;;;19.23;;
15398;SDS011;7797;51.428;6.756;2024-01-11T08:36:04;30.17;;;18.50;;
15398;SDS011;7797;51.428;6.756;2024-01-11T08:38:33;34.50;;;17.10;;
15398;SDS011;7797;51.428;6.756;2024-01-11T08:40:59;34.13;;;17.67;;
15398;SDS011;7797;51.428;6.756;2024-01-11T08:43:26;31.10;;;17.83;;
15398;SDS011;7797;51.428;6.756;2024-01-11T08:45:53;36.93;;;19.43;;
15398;SDS011;7797;51.428;6.756;2024-01-11T08:48:20;30.40;;;17.50;;
15398;SDS011;7797;51.428;6.756;2024-01-11T08:50:51;35.57;;;18.30;;
15398;SDS011;7797;51.428;6.756;2024-01-11T08:53:20;32.77;;;18.90;;
15398;SDS011;7797;51.428;6.756;2024-01-11T08:55:48;39.43;;;17.83;;
15398;SDS011;7797;51.428;6.756;2024-01-11T08:58:15;36.33;;;18.40;;
15398;SDS011;7797;51.428;6.756;2024-01-11T09:00:41;32.87;;;17.83;;
15398;SDS011;7797;51.428;6.756;2024-01-11T09:03:10;28.40;;;17.00;;
15398;SDS011;7797;51.428;6.756;2024-01-11T09:05:38;33.93;;;18.13;;
15398;SDS011;7797;51.428;6.756;2024-01-11T09:08:06;33.53;;;17.50;;
15398;SDS011;7797;51.428;6.756;2024-01-11T09:10:33;31.80;;;17.47;;
15398;SDS011;7797;51.428;6.756;2024-01-11T09:13:02;32.53;;;16.70;;
15398;SDS011;7797;51.428;6.756;2024-01-11T09:15:29;33.63;;;19.10;;
15398;SDS011;7797;51.428;6.756;2024-01-11T09:17:56;34.60;;;18.60;;
15398;SDS011;7797;51.428;6.756;2024-01-11T09:20:23;43.30;;;22.27;;
15398;SDS011;7797;51.428;6.756;2024-01-11T09:22:50;40.70;;;19.43;;
15398;SDS011;7797;51.428;6.756;2024-01-11T09:25:17;29.43;;;17.83;;
15398;SDS011;7797;51.428;6.756;2024-01-11T09:27:44;35.63;;;18.67;;
15398;SDS011;7797;51.428;6.756;2024-01-11T09:30:11;36.13;;;18.03;;
15398;SDS011;7797;51.428;6.756;2024-01-11T09:32:42;33.93;;;19.13;;
15398;SDS011;7797;51.428;6.756;2024-01-11T09:35:09;33.33;;;17.97;;
15398;SDS011;7797;51.428;6.756;2024-01-11T09:37:41;35.27;;;18.73;;
15398;SDS011;7797;51.428;6.756;2024-01-11T09:40:09;36.80;;;17.50;;
15398;SDS011;7797;51.428;6.756;2024-01-11T09:42:37;37.27;;;18.43;;
15398;SDS011;7797;51.428;6.756;2024-01-11T09:45:09;29.77;;;18.30;;
15398;SDS011;7797;51.428;6.756;2024-01-11T09:47:39;35.10;;;19.30;;
15398;SDS011;7797;51.428;6.756;2024-01-11T09:50:06;33.17;;;18.33;;
15398;SDS011;7797;51.428;6.756;2024-01-11T09:52:34;34.77;;;18.43;;
15398;SDS011;7797;51.428;6.756;2024-01-11T09:55:02;32.63;;;18.60;;
15398;SDS011;7797;51.428;6.756;2024-01-11T09:57:30;35.50;;;18.07;;
15398;SDS011;7797;51.428;6.756;2024-01-11T09:59:58;34.53;;;19.17;;
15398;SDS011;7797;51.428;6.756;2024-01-11T10:02:25;34.57;;;19.33;;
15398;SDS011;7797;51.428;6.756;2024-01-11T10:04:55;45.70;;;19.10;;
15398;SDS011;7797;51.428;6.756;2024-01-11T10:07:23;33.70;;;18.03;;
15398;SDS011;7797;51.428;6.756;2024-01-11T10:09:51;36.83;;;18.93;;
15398;SDS011;7797;51.428;6.756;2024-01-11T10:12:19;37.33;;;19.40;;
15398;SDS011;7797;51.428;6.756;2024-01-11T10:14:49;35.00;;;18.57;;
15398;SDS011;7797;51.428;6.756;2024-01-11T10:17:16;36.20;;;18.13;;
15398;SDS011;7797;51.428;6.756;2024-01-11T10:19:48;35.33;;;18.57;;
15398;SDS011;7797;51.428;6.756;2024-01-11T10:22:15;37.63;;;19.93;;
15398;SDS011;7797;51.428;6.756;2024-01-11T10:24:43;36.10;;;19.27;;
15398;SDS011;7797;51.428;6.756;2024-01-11T10:27:11;36.43;;;19.23;;
15398;SDS011;7797;51.428;6.756;2024-01-11T10:29:38;36.10;;;19.23;;
15398;SDS011;7797;51.428;6.756;2024-01-11T10:32:05;34.30;;;19.80;;
15398;SDS011;7797;51.428;6.756;2024-01-11T10:34:32;37.63;;;19.20;;
15398;SDS011;7797;51.428;6.756;2024-01-11T10:37:00;34.33;;;19.03;;
15398;SDS011;7797;51.428;6.756;2024-01-11T10:39:27;33.43;;;19.07;;
15398;SDS011;7797;51.428;6.756;2024-01-11T10:42:04;35.97;;;18.70;;
15398;SDS011;7797;51.428;6.756;2024-01-11T10:44:33;33.43;;;18.20;;
15398;SDS011;7797;51.428;6.756;2024-01-11T10:47:02;37.60;;;19.07;;
15398;SDS011;7797;51.428;6.756;2024-01-11T10:49:29;29.63;;;17.43;;
15398;SDS011;7797;51.428;6.756;2024-01-11T10:52:01;42.60;;;18.57;;
15398;SDS011;7797;51.428;6.756;2024-01-11T10:54:29;35.50;;;18.57;;
15398;SDS011;7797;51.428;6.756;2024-01-11T10:57:00;31.83;;;17.03;;
15398;SDS011;7797;51.428;6.756;2024-01-11T10:59:27;32.20;;;18.03;;
15398;SDS011;7797;51.428;6.756;2024-01-11T11:01:55;31.37;;;17.90;;
15398;SDS011;7797;51.428;6.756;2024-01-11T11:04:24;35.73;;;20.27;;
15398;SDS011;7797;51.428;6.756;2024-01-11T11:06:56;38.00;;;20.43;;
15398;SDS011;7797;51.428;6.756;2024-01-11T11:09:24;34.13;;;17.50;;
15398;SDS011;7797;51.428;6.756;2024-01-11T11:11:56;36.50;;;17.47;;
15398;SDS011;7797;51.428;6.756;2024-01-11T11:14:24;30.50;;;17.57;;
15398;SDS011;7797;51.428;6.756;2024-01-11T11:16:52;30.70;;;16.47;;
15398;SDS011;7797;51.428;6.756;2024-01-11T11:19:19;31.87;;;17.13;;
15398;SDS011;7797;51.428;6.756;2024-01-11T11:21:50;30.13;;;16.83;;
15398;SDS011;7797;51.428;6.756;2024-01-11T11:24:17;32.20;;;16.80;;
15398;SDS011;7797;51.428;6.756;2024-01-11T11:26:45;38.83;;;16.50;;
15398;SDS011;7797;51.428;6.756;2024-01-11T11:29:12;32.33;;;17.17;;
15398;SDS011;7797;51.428;6.756;2024-01-11T11:31:45;30.03;;;16.10;;
15398;SDS011;7797;51.428;6.756;2024-01-11T11:34:14;34.97;;;16.57;;
15398;SDS011;7797;51.428;6.756;2024-01-11T11:36:41;28.93;;;15.90;;
15398;SDS011;7797;51.428;6.756;2024-01-11T11:39:11;27.10;;;16.43;;
15398;SDS011;7797;51.428;6.756;2024-01-11T11:41:38;27.73;;;16.57;;
15398;SDS011;7797;51.428;6.756;2024-01-11T11:44:06;24.13;;;15.37;;
15398;SDS011;7797;51.428;6.756;2024-01-11T11:46:33;28.00;;;16.33;;
15398;SDS011;7797;51.428;6.756;2024-01-11T11:49:00;31.87;;;16.53;;
15398;SDS011;7797;51.428;6.756;2024-01-11T11:51:27;26.70;;;15.77;;
15398;SDS011;7797;51.428;6.756;2024-01-11T11:53:55;26.50;;;16.37;;
15398;SDS011;7797;51.428;6.756;2024-01-11T11:56:25;25.33;;;16.23;;
15398;SDS011;7797;51.428;6.756;2024-01-11T11:58:52;31.40;;;16.53;;
15398;SDS011;7797;51.428;6.756;2024-01-11T12:01:21;25.27;;;15.97;;
15398;SDS011;7797;51.428;6.756;2024-01-11T12:03:48;25.37;;;15.87;;
15398;SDS011;7797;51.428;6.756;2024-01-11T12:06:17;28.33;;;16.57;;
15398;SDS011;7797;51.428;6.756;2024-01-11T12:08:46;28.83;;;16.70;;
15398;SDS011;7797;51.428;6.756;2024-01-11T12:11:14;25.60;;;15.93;;
15398;SDS011;7797;51.428;6.756;2024-01-11T12:13:44;28.43;;;16.47;;
15398;SDS011;7797;51.428;6.756;2024-01-11T12:16:11;28.70;;;15.87;;
15398;SDS011;7797;51.428;6.756;2024-01-11T12:18:39;28.83;;;16.73;;
15398;SDS011;7797;51.428;6.756;2024-01-11T12:21:06;23.83;;;15.80;;
15398;SDS011;7797;51.428;6.756;2024-01-11T12:23:34;24.53;;;15.83;;
15398;SDS011;7797;51.428;6.756;2024-01-11T12:26:01;22.87;;;15.43;;
15398;SDS011;7797;51.428;6.756;2024-01-11T12:28:32;28.17;;;14.50;;
15398;SDS011;7797;51.428;6.756;2024-01-11T12:30:59;29.57;;;14.70;;
15398;SDS011;7797;51.428;6.756;2024-01-11T12:33:26;30.47;;;15.60;;
15398;SDS011;7797;51.428;6.756;2024-01-11T12:35:54;26.10;;;14.77;;
15398;SDS011;7797;51.428;6.756;2024-01-11T12:38:21;24.10;;;14.73;;
15398;SDS011;7797;51.428;6.756;2024-01-11T12:40:48;30.03;;;14.03;;
15398;SDS011;7797;51.428;6.756;2024-01-11T12:43:16;23.33;;;13.97;;
15398;SDS011;7797;51.428;6.756;2024-01-11T12:45:43;24.50;;;13.77;;
15398;SDS011;7797;51.428;6.756;2024-01-11T12:48:10;26.53;;;15.37;;
15398;SDS011;7797;51.428;6.756;2024-01-11T12:50:41;24.83;;;13.90;;
15398;SDS011;7797;51.428;6.756;2024-01-11T12:53:08;24.23;;;13.73;;
15398;SDS011;7797;51.428;6.756;2024-01-11T12:55:38;21.97;;;14.17;;
15398;SDS011;7797;51.428;6.756;2024-01-11T12:58:20;25.43;;;13.33;;
15398;SDS011;7797;51.428;6.756;2024-01-11T13:00:48;21.03;;;13.80;;
15398;SDS011;7797;51.428;6.756;2024-01-11T13:03:16;22.23;;;14.17;;
15398;SDS011;7797;51.428;6.756;2024-01-11T13:05:43;22.13;;;14.07;;
15398;SDS011;7797;51.428;6.756;2024-01-11T13:08:10;24.03;;;13.50;;
15398;SDS011;7797;51.428;6.756;2024-01-11T13:10:37;22.13;;;14.40;;
15398;SDS011;7797;51.428;6.756;2024-01-11T13:13:04;21.93;;;13.50;;
15398;SDS011;7797;51.428;6.756;2024-01-11T13:15:35;21.60;;;13.87;;
15398;SDS011;7797;51.428;6.756;2024-01-11T13:18:05;21.70;;;12.77;;
15398;SDS011;7797;51.428;6.756;2024-01-11T13:20:32;20.80;;;12.53;;
15398;SDS011;7797;51.428;6.756;2024-01-11T13:23:12;23.87;;;13.73;;
15398;SDS011;7797;51.428;6.756;2024-01-11T13:25:48;22.10;;;12.10;;
15398;SDS011;7797;51.428;6.756;2024-01-11T13:28:19;20.93;;;13.53;;
15398;SDS011;7797;51.428;6.756;2024-01-11T13:30:46;23.40;;;12.40;;
15398;SDS011;7797;51.428;6.756;2024-01-11T13:33:13;24.07;;;14.33;;
15398;SDS011;7797;51.428;6.756;2024-01-11T13:35:43;21.20;;;13.13;;
15398;SDS011;7797;51.428;6.756;2024-01-11T13:38:11;22.17;;;12.33;;
15398;SDS011;7797;51.428;6.756;2024-01-11T13:40:39;18.97;;;12.27;;
15398;SDS011;7797;51.428;6.756;2024-01-11T13:43:06;18.37;;;11.93;;
15398;SDS011;7797;51.428;6.756;2024-01-11T13:45:33;18.73;;;10.97;;
15398;SDS011;7797;51.428;6.756;2024-01-11T13:48:03;17.27;;;10.93;;
15398;SDS011;7797;51.428;6.756;2024-01-11T13:50:33;17.67;;;10.60;;
15398;SDS011;7797;51.428;6.756;2024-01-11T13:53:01;20.47;;;10.70;;
15398;SDS011;7797;51.428;6.756;2024-01-11T13:55:28;16.07;;;9.80;;
15398;SDS011;7797;51.428;6.756;2024-01-11T13:58:05;17.00;;;10.27;;
15398;SDS011;7797;51.428;6.756;2024-01-11T14:00:32;17.10;;;9.73;;
15398;SDS011;7797;51.428;6.756;2024-01-11T14:02:59;16.83;;;9.60;;
15398;SDS011;7797;51.428;6.756;2024-01-11T14:05:26;20.10;;;10.67;;
15398;SDS011;7797;51.428;6.756;2024-01-11T14:07:53;20.83;;;11.00;;
15398;SDS011;7797;51.428;6.756;2024-01-11T14:10:25;17.93;;;10.30;;
15398;SDS011;7797;51.428;6.756;2024-01-11T14:12:53;16.03;;;10.10;;
15398;SDS011;7797;51.428;6.756;2024-01-11T14:15:21;18.90;;;10.33;;
15398;SDS011;7797;51.428;6.756;2024-01-11T14:17:47;18.93;;;10.90;;
15398;SDS011;7797;51.428;6.756;2024-01-11T14:20:15;18.60;;;10.50;;
15398;SDS011;7797;51.428;6.756;2024-01-11T14:22:43;20.00;;;10.37;;
15398;SDS011;7797;51.428;6.756;2024-01-11T14:25:13;18.40;;;10.23;;
15398;SDS011;7797;51.428;6.756;2024-01-11T14:27:41;18.33;;;11.20;;
15398;SDS011;7797;51.428;6.756;2024-01-11T14:30:08;15.17;;;9.77;;
15398;SDS011;7797;51.428;6.756;2024-01-11T14:32:36;17.33;;;10.23;;
15398;SDS011;7797;51.428;6.756;2024-01-11T14:35:07;23.83;;;11.30;;
15398;SDS011;7797;51.428;6.756;2024-01-11T14:37:35;18.70;;;10.47;;
15398;SDS011;7797;51.428;6.756;2024-01-11T14:40:03;16.63;;;9.83;;
15398;SDS011;7797;51.428;6.756;2024-01-11T14:42:33;16.43;;;10.30;;